Time;durP1;ratioP1;P1;durP2;ratioP2;P2;SDS_P1;SDS_P2;PMS_P1;PMS_P2;Temp;Humidity;BMP_temperature;BMP_pressure;BME280_temperature;BME280_humidity;BME280_pressure;Samples;Min_cycle;Max_cycle;Signal;HPM_P1;HPM_P2
2023/10/11 00:02:08;;;;;;;19.67;12.30;;;15.30;26.90;;;;;;5022904;28;20474;-69
2023/10/11 00:04:35;;;;;;;17.87;11.57;;;15.30;26.70;;;;;;5024748;28;20852;-69
2023/10/11 00:07:01;;;;;;;18.53;12.23;;;15.30;26.60;;;;;;5026693;28;20998;-68
2023/10/11 00:09:35;;;;;;;21.77;12.43;;;15.30;27.00;;;;;;5030546;28;20471;-69
2023/10/11 00:12:04;;;;;;;22.53;11.20;;;15.30;27.10;;;;;;5028668;28;20483;-69
2023/10/11 00:14:31;;;;;;;20.70;11.80;;;15.30;27.00;;;;;;5028146;28;21054;-68
2023/10/11 00:16:58;;;;;;;14.57;9.50;;;15.30;26.80;;;;;;5028771;28;20994;-68
2023/10/11 00:19:29;;;;;;;18.63;11.13;;;15.20;26.70;;;;;;5031711;28;20478;-69
2023/10/11 00:21:56;;;;;;;21.60;13.00;;;15.20;26.70;;;;;;5031433;28;20462;-68
2023/10/11 00:24:23;;;;;;;26.60;13.07;;;15.20;26.80;;;;;;5034774;28;20473;-69
2023/10/11 00:26:51;;;;;;;19.83;12.17;;;15.20;27.20;;;;;;5031596;28;20467;-69
2023/10/11 00:29:19;;;;;;;24.23;12.43;;;15.10;27.60;;;;;;5029931;28;21057;-69
2023/10/11 00:31:46;;;;;;;24.10;14.10;;;15.20;27.80;;;;;;5029664;28;20474;-69
2023/10/11 00:34:13;;;;;;;22.23;12.53;;;15.20;28.00;;;;;;5028096;28;20486;-68
2023/10/11 00:36:45;;;;;;;24.27;13.37;;;15.10;28.10;;;;;;5030243;28;20529;-68
2023/10/11 00:39:16;;;;;;;25.67;12.67;;;15.10;28.20;;;;;;5029813;28;20486;-69
2023/10/11 00:41:46;;;;;;;24.40;11.53;;;15.10;28.40;;;;;;5028636;28;20470;-69
2023/10/11 00:44:16;;;;;;;22.27;11.83;;;15.10;28.30;;;;;;5030788;28;20486;-69
2023/10/11 00:46:56;;;;;;;22.50;12.43;;;15.10;28.40;;;;;;5030523;28;20466;-69
2023/10/11 00:49:23;;;;;;;23.53;12.20;;;15.10;28.30;;;;;;5023721;28;20462;-69
2023/10/11 00:51:50;;;;;;;22.77;11.97;;;15.20;28.70;;;;;;5026439;28;20485;-69
2023/10/11 00:54:17;;;;;;;21.90;11.50;;;15.20;28.60;;;;;;5027071;28;21074;-69
2023/10/11 00:56:44;;;;;;;22.80;11.80;;;15.20;28.20;;;;;;5030178;28;20487;-69
2023/10/11 00:59:14;;;;;;;22.53;11.57;;;15.10;28.40;;;;;;5028022;28;20537;-69
2023/10/11 01:01:42;;;;;;;22.47;12.50;;;15.10;28.40;;;;;;5028970;28;20475;-69
2023/10/11 01:04:10;;;;;;;21.43;11.63;;;15.00;28.30;;;;;;5030145;28;20494;-69
2023/10/11 01:06:37;;;;;;;20.13;10.23;;;15.00;28.50;;;;;;5028689;28;20480;-69
2023/10/11 01:09:15;;;;;;;18.93;11.30;;;15.00;28.30;;;;;;5025563;28;20471;-68
2023/10/11 01:11:42;;;;;;;24.77;11.90;;;15.00;28.30;;;;;;5026311;28;20470;-69
2023/10/11 01:14:11;;;;;;;22.30;11.43;;;15.00;28.20;;;;;;5028662;28;21122;-69
2023/10/11 01:16:38;;;;;;;23.10;11.57;;;14.90;28.10;;;;;;5023318;28;20471;-69
2023/10/11 01:19:11;;;;;;;17.37;11.97;;;14.90;28.30;;;;;;5029292;28;20944;-69
2023/10/11 01:21:39;;;;;;;23.77;11.10;;;14.90;28.40;;;;;;5026196;28;20467;-69
2023/10/11 01:24:08;;;;;;;20.97;12.13;;;14.90;28.40;;;;;;5026346;28;20510;-69
2023/10/11 01:26:35;;;;;;;29.10;12.03;;;14.90;28.50;;;;;;5027100;28;20525;-69
2023/10/11 01:29:01;;;;;;;20.73;11.93;;;14.90;28.50;;;;;;5027009;28;20940;-69
2023/10/11 01:31:32;;;;;;;22.90;11.73;;;14.80;28.70;;;;;;5027356;28;20478;-69
2023/10/11 01:33:59;;;;;;;23.60;12.87;;;14.80;28.80;;;;;;5025743;28;20870;-69
2023/10/11 01:36:26;;;;;;;19.70;12.27;;;14.80;29.00;;;;;;5026983;28;20471;-69
2023/10/11 01:38:54;;;;;;;20.57;11.23;;;14.80;28.80;;;;;;5029215;28;20467;-68
2023/10/11 01:41:23;;;;;;;23.20;13.13;;;14.80;28.70;;;;;;5029652;28;20467;-68
2023/10/11 01:43:51;;;;;;;24.03;13.30;;;14.80;28.80;;;;;;5026785;28;20478;-68
2023/10/11 01:46:24;;;;;;;24.83;11.60;;;14.80;29.00;;;;;;5028336;28;20459;-68
2023/10/11 01:48:51;;;;;;;23.00;12.97;;;14.80;29.30;;;;;;5026779;28;20529;-68
2023/10/11 01:51:23;;;;;;;20.07;11.90;;;14.80;29.20;;;;;;5026831;28;20493;-69
2023/10/11 01:53:49;;;;;;;23.63;12.67;;;14.70;29.40;;;;;;5029306;28;21913;-69
2023/10/11 01:56:18;;;;;;;24.80;11.47;;;14.70;29.30;;;;;;5026584;28;20943;-69
2023/10/11 01:58:44;;;;;;;18.20;11.43;;;14.70;29.30;;;;;;5028499;28;20512;-69
2023/10/11 02:01:21;;;;;;;27.33;13.13;;;14.70;29.30;;;;;;5028065;28;21010;-69
2023/10/11 02:03:51;;;;;;;25.10;12.03;;;14.70;29.20;;;;;;5024399;28;20524;-69
2023/10/11 02:06:18;;;;;;;21.73;12.53;;;14.60;29.20;;;;;;5025071;28;20463;-69
2023/10/11 02:08:45;;;;;;;24.80;11.80;;;14.60;29.30;;;;;;5028206;28;20462;-68
2023/10/11 02:11:14;;;;;;;20.73;11.60;;;14.60;29.30;;;;;;5028810;28;20467;-68
2023/10/11 02:13:42;;;;;;;18.77;10.97;;;14.60;29.60;;;;;;5025710;28;20481;-68
2023/10/11 02:16:11;;;;;;;24.50;11.87;;;14.60;29.60;;;;;;5023894;28;20945;-68
2023/10/11 02:18:38;;;;;;;22.37;11.70;;;14.60;29.80;;;;;;5024828;28;20549;-69
2023/10/11 02:21:06;;;;;;;21.53;10.60;;;14.60;29.70;;;;;;5025664;28;20565;-69
2023/10/11 02:23:37;;;;;;;19.73;10.33;;;14.60;29.90;;;;;;5023922;28;20455;-69
2023/10/11 02:26:04;;;;;;;18.73;11.43;;;14.50;29.90;;;;;;5026953;28;20474;-69
2023/10/11 02:28:32;;;;;;;26.73;11.80;;;14.50;30.20;;;;;;5026777;28;20467;-69
2023/10/11 02:31:00;;;;;;;21.93;11.80;;;14.50;30.10;;;;;;5022158;28;20506;-68
2023/10/11 02:33:31;;;;;;;20.80;11.57;;;14.50;30.40;;;;;;5028927;28;20490;-68
2023/10/11 02:35:57;;;;;;;17.90;12.03;;;14.50;29.80;;;;;;5023737;28;21230;-68
2023/10/11 02:38:25;;;;;;;22.30;11.67;;;14.40;30.20;;;;;;5030310;28;20469;-68
2023/10/11 02:40:56;;;;;;;18.17;10.57;;;14.50;30.00;;;;;;5024361;28;20545;-69
2023/10/11 02:43:24;;;;;;;32.70;12.47;;;14.50;30.00;;;;;;5024367;28;20809;-68
2023/10/11 02:45:51;;;;;;;23.73;11.80;;;14.40;30.00;;;;;;5024277;28;20511;-68
2023/10/11 02:48:20;;;;;;;21.73;11.93;;;14.40;30.00;;;;;;5026146;28;20466;-68
2023/10/11 02:50:47;;;;;;;26.00;12.83;;;14.40;29.80;;;;;;5024140;28;20505;-68
2023/10/11 02:53:22;;;;;;;19.37;10.50;;;14.40;29.80;;;;;;5027350;28;20479;-68
2023/10/11 02:55:56;;;;;;;23.87;10.70;;;14.40;29.70;;;;;;5030049;28;20486;-68
2023/10/11 02:58:24;;;;;;;25.97;10.90;;;14.40;29.50;;;;;;5026780;28;20544;-68
2023/10/11 03:00:56;;;;;;;16.00;9.57;;;14.30;29.50;;;;;;5024863;28;21010;-69
2023/10/11 03:03:26;;;;;;;21.93;10.50;;;14.30;29.40;;;;;;5009453;28;20506;-69
2023/10/11 03:05:53;;;;;;;20.93;10.40;;;14.30;29.40;;;;;;5002775;28;20530;-68
2023/10/11 03:08:21;;;;;;;19.23;10.27;;;14.30;29.60;;;;;;5005967;28;20467;-68
2023/10/11 03:10:53;;;;;;;20.60;10.90;;;14.30;29.60;;;;;;5008268;28;20518;-68
2023/10/11 03:13:24;;;;;;;18.30;10.60;;;14.30;29.70;;;;;;5009949;28;21018;-68
2023/10/11 03:15:54;;;;;;;19.70;11.57;;;14.30;29.60;;;;;;5013229;28;20487;-69
2023/10/11 03:18:25;;;;;;;18.60;11.17;;;14.30;29.40;;;;;;5013505;28;20808;-68
2023/10/11 03:21:06;;;;;;;17.87;9.83;;;14.30;29.50;;;;;;5014437;28;20467;-68
2023/10/11 03:23:36;;;;;;;14.23;9.43;;;14.30;29.40;;;;;;5005173;28;20460;-69
2023/10/11 03:26:16;;;;;;;19.77;10.10;;;14.30;30.10;;;;;;5016941;28;20523;-68
2023/10/11 03:28:43;;;;;;;22.17;11.20;;;14.20;29.30;;;;;;5009268;28;21015;-69
2023/10/11 03:31:12;;;;;;;19.53;10.00;;;14.30;29.30;;;;;;5018376;28;20481;-68
2023/10/11 03:33:41;;;;;;;17.53;9.80;;;14.20;29.20;;;;;;5025683;28;20569;-69
2023/10/11 03:36:18;;;;;;;19.13;10.20;;;14.20;29.30;;;;;;5024051;28;20548;-68
2023/10/11 03:38:51;;;;;;;20.83;10.37;;;14.20;29.10;;;;;;5019843;28;20489;-68
2023/10/11 03:41:25;;;;;;;17.13;9.23;;;14.20;28.70;;;;;;5027268;28;20514;-68
2023/10/11 03:43:54;;;;;;;18.33;8.93;;;14.20;28.80;;;;;;5026526;28;20582;-69
2023/10/11 03:46:25;;;;;;;16.53;9.43;;;14.10;28.80;;;;;;5030277;28;20488;-69
2023/10/11 03:48:56;;;;;;;17.57;9.00;;;14.10;28.80;;;;;;5025112;28;20467;-69
2023/10/11 03:51:23;;;;;;;21.33;11.07;;;14.10;29.30;;;;;;5026131;28;20463;-68
2023/10/11 03:53:52;;;;;;;14.40;8.80;;;14.10;28.70;;;;;;5031262;28;20517;-68
2023/10/11 03:56:18;;;;;;;17.13;9.07;;;14.00;28.50;;;;;;5029757;28;21030;-69
2023/10/11 03:58:45;;;;;;;20.27;10.10;;;14.00;28.60;;;;;;5028771;28;20466;-64
2023/10/11 04:01:14;;;;;;;18.67;9.50;;;14.00;28.40;;;;;;5029415;28;20886;-64
2023/10/11 04:03:41;;;;;;;15.33;9.20;;;14.00;28.20;;;;;;5021941;28;20464;-68
2023/10/11 04:06:16;;;;;;;15.23;9.63;;;13.90;28.10;;;;;;5029137;28;20493;-69
2023/10/11 04:08:48;;;;;;;19.50;10.97;;;13.90;28.20;;;;;;5028515;28;20458;-67
2023/10/11 04:11:19;;;;;;;18.27;9.97;;;13.90;28.10;;;;;;5027387;28;20554;-68
2023/10/11 04:13:50;;;;;;;15.43;9.00;;;13.90;28.30;;;;;;5026512;28;20502;-68
2023/10/11 04:16:17;;;;;;;15.67;9.93;;;13.80;28.20;;;;;;5029647;28;20575;-67
2023/10/11 04:18:45;;;;;;;22.47;9.97;;;13.80;28.40;;;;;;5032360;28;20497;-67
2023/10/11 04:21:52;;;;;;;22.13;9.83;;;13.80;28.40;;;;;;5029689;28;20521;-67
2023/10/11 04:24:20;;;;;;;21.00;10.00;;;13.70;28.20;;;;;;5025649;28;20513;-68
2023/10/11 04:26:53;;;;;;;19.30;10.50;;;13.70;28.30;;;;;;5027958;28;21013;-67
2023/10/11 04:29:19;;;;;;;18.07;9.67;;;13.70;28.70;;;;;;5031555;28;20462;-67
2023/10/11 04:32:09;;;;;;;19.13;11.17;;;13.70;28.60;;;;;;5029423;28;20541;-68
2023/10/11 04:34:38;;;;;;;22.57;10.73;;;13.70;28.70;;;;;;5027079;28;20217;-67
2023/10/11 04:37:16;;;;;;;18.10;9.77;;;13.60;28.80;;;;;;5027182;28;20479;-67
2023/10/11 04:39:49;;;;;;;17.80;10.23;;;13.60;28.80;;;;;;5029549;28;20467;-68
2023/10/11 04:42:19;;;;;;;15.07;9.50;;;13.60;28.90;;;;;;5030084;28;20921;-67
2023/10/11 04:44:54;;;;;;;22.90;11.30;;;13.60;28.80;;;;;;5029708;28;20471;-67
2023/10/11 04:47:23;;;;;;;25.00;10.17;;;13.60;29.00;;;;;;5027458;28;20467;-67
2023/10/11 04:49:52;;;;;;;21.10;9.43;;;13.50;28.90;;;;;;5033064;28;20940;-67
2023/10/11 04:52:25;;;;;;;20.40;9.93;;;13.50;28.90;;;;;;5034179;28;20538;-68
2023/10/11 04:54:54;;;;;;;18.77;9.97;;;13.40;28.90;;;;;;5030605;28;20582;-68
2023/10/11 04:57:33;;;;;;;17.77;9.87;;;13.40;28.80;;;;;;5025876;28;20467;-67
2023/10/11 05:00:00;;;;;;;19.33;11.10;;;13.30;28.70;;;;;;5032590;28;20550;-67
2023/10/11 05:02:32;;;;;;;20.40;10.23;;;13.30;28.50;;;;;;5028631;28;20537;-67
2023/10/11 05:05:00;;;;;;;19.83;10.77;;;13.20;28.50;;;;;;5025609;28;20807;-67
2023/10/11 05:07:28;;;;;;;16.77;8.93;;;13.20;28.60;;;;;;5029269;28;20521;-68
2023/10/11 05:10:00;;;;;;;19.13;9.23;;;13.20;28.50;;;;;;5027737;28;20502;-67
2023/10/11 05:12:27;;;;;;;21.40;9.67;;;13.20;28.70;;;;;;5029701;28;20467;-67
2023/10/11 05:15:07;;;;;;;18.03;10.30;;;13.10;28.70;;;;;;5027218;28;20494;-67
2023/10/11 05:17:40;;;;;;;15.50;9.43;;;13.10;28.70;;;;;;5030025;28;20500;-67
2023/10/11 05:20:23;;;;;;;36.90;10.50;;;13.10;28.80;;;;;;5027552;28;20474;-67
2023/10/11 05:22:52;;;;;;;16.73;8.97;;;13.10;28.90;;;;;;5026741;28;20462;-68
2023/10/11 05:31:01;;;;;;;20.03;10.03;;;13.00;28.80;;;;;;5026800;28;20466;-67
2023/10/11 05:33:41;;;;;;;21.30;9.93;;;12.90;28.80;;;;;;5025716;28;20479;-68
2023/10/11 05:36:17;;;;;;;15.83;8.53;;;12.90;29.20;;;;;;5025912;28;20478;-67
2023/10/11 05:52:13;;;;;;;16.47;9.23;;;12.90;29.20;;;;;;4987924;28;20455;-66
2023/10/11 05:54:40;;;;;;;20.10;8.40;;;12.90;29.60;;;;;;4984998;28;20575;-66
2023/10/11 05:57:08;;;;;;;18.47;8.20;;;12.90;29.60;;;;;;4987813;28;20474;-68
2023/10/11 05:59:37;;;;;;;15.13;8.10;;;13.00;29.50;;;;;;4988000;28;20471;-67
2023/10/11 06:02:07;;;;;;;21.83;8.60;;;13.00;29.70;;;;;;4990399;28;20477;-67
2023/10/11 06:04:39;;;;;;;16.00;8.27;;;13.10;29.60;;;;;;4988531;28;20495;-67
2023/10/11 06:07:05;;;;;;;15.60;8.30;;;13.10;29.40;;;;;;4989249;28;20493;-67
2023/10/11 06:09:39;;;;;;;16.23;7.00;;;13.20;29.10;;;;;;4989462;28;20449;-67
2023/10/11 06:12:22;;;;;;;12.90;7.43;;;13.40;28.90;;;;;;4986260;28;20961;-67
2023/10/11 06:14:50;;;;;;;14.50;9.13;;;13.70;28.30;;;;;;4985742;28;20488;-67
2023/10/11 06:17:21;;;;;;;14.53;7.73;;;14.20;27.30;;;;;;4988969;28;20457;-67
2023/10/11 06:19:53;;;;;;;17.93;8.90;;;14.70;26.20;;;;;;4987109;28;20858;-67
2023/10/11 06:22:21;;;;;;;15.33;7.40;;;15.10;25.00;;;;;;4988056;28;20817;-67
2023/10/11 06:24:48;;;;;;;12.70;6.47;;;15.50;23.30;;;;;;4985067;28;20849;-68
2023/10/11 06:30:06;;;;;;;15.73;7.30;;;15.90;22.00;;;;;;4986387;28;20479;-67
2023/10/11 06:32:35;;;;;;;13.97;7.27;;;16.10;22.10;;;;;;4986085;28;20477;-67
2023/10/11 06:35:04;;;;;;;16.27;6.63;;;16.50;21.60;;;;;;4987749;28;20488;-67
2023/10/11 06:37:34;;;;;;;13.47;5.60;;;16.90;20.40;;;;;;4976995;28;20464;-67
2023/10/11 06:40:13;;;;;;;15.87;7.30;;;17.40;19.00;;;;;;4985890;28;20485;-67
2023/10/11 06:42:42;;;;;;;23.43;8.93;;;17.90;18.00;;;;;;4988215;28;20464;-67
2023/10/11 06:45:16;;;;;;;24.87;9.87;;;18.30;16.90;;;;;;4988854;28;20492;-68
2023/10/11 06:47:47;;;;;;;15.53;6.20;;;18.60;16.10;;;;;;4985000;28;20945;-68
2023/10/11 06:50:14;;;;;;;14.90;6.40;;;18.90;15.00;;;;;;4988846;28;20811;-68
2023/10/11 06:52:44;;;;;;;15.03;6.40;;;19.20;14.60;;;;;;4986242;28;20540;-68
2023/10/11 06:55:16;;;;;;;14.90;6.30;;;19.40;14.40;;;;;;4986832;28;20500;-68
2023/10/11 06:57:50;;;;;;;11.30;6.13;;;19.60;13.70;;;;;;4989339;28;20548;-68
2023/10/11 07:00:24;;;;;;;15.90;7.00;;;19.80;12.30;;;;;;4980916;28;20468;-68
2023/10/11 07:02:52;;;;;;;12.03;6.00;;;20.00;11.70;;;;;;4987284;28;20456;-68
2023/10/11 07:05:20;;;;;;;11.80;5.83;;;20.40;10.60;;;;;;4986978;28;20479;-68
2023/10/11 07:07:48;;;;;;;19.03;7.60;;;20.70;9.60;;;;;;4985864;28;20467;-68
2023/10/11 07:10:28;;;;;;;22.23;7.47;;;21.30;8.30;;;;;;4986884;28;20460;-68
2023/10/11 07:13:04;;;;;;;15.10;7.00;;;22.00;6.60;;;;;;4988727;28;21029;-68
2023/10/11 07:15:42;;;;;;;13.87;6.53;;;22.40;5.60;;;;;;4989538;28;20520;-68
2023/10/11 07:18:11;;;;;;;13.93;7.03;;;22.70;5.10;;;;;;4987092;28;20457;-68
2023/10/11 07:20:49;;;;;;;23.93;8.10;;;23.00;4.20;;;;;;4988308;28;20825;-68
2023/10/11 07:23:19;;;;;;;17.70;6.00;;;23.20;3.50;;;;;;4985692;28;20453;-68
2023/10/11 07:25:49;;;;;;;19.00;6.43;;;23.60;2.40;;;;;;4982353;28;20520;-68
2023/10/11 07:28:35;;;;;;;10.30;5.70;;;24.50;1.00;;;;;;4983944;28;20455;-69
2023/10/11 07:31:03;;;;;;;13.60;6.53;;;25.30;1.00;;;;;;4993752;28;20494;-68
2023/10/11 07:33:30;;;;;;;15.40;6.80;;;26.50;1.00;;;;;;5008195;28;20487;-68
2023/10/11 07:35:59;;;;;;;14.60;6.27;;;27.50;1.00;;;;;;5007433;28;20472;-69
2023/10/11 07:38:32;;;;;;;15.13;6.83;;;28.60;1.00;;;;;;5007118;28;20456;-69
2023/10/11 07:41:04;;;;;;;11.67;5.83;;;29.70;1.00;;;;;;5006181;28;20543;-69
2023/10/11 07:43:33;;;;;;;12.43;5.80;;;30.60;1.00;;;;;;5007791;28;20451;-69
2023/10/11 07:46:02;;;;;;;16.97;6.87;;;31.50;1.00;;;;;;5007853;28;20464;-69
2023/10/11 07:48:32;;;;;;;14.73;6.23;;;32.50;1.00;;;;;;5008244;28;20456;-69
2023/10/11 07:51:03;;;;;;;11.70;6.07;;;33.40;1.00;;;;;;5007540;28;20555;-69
2023/10/11 07:53:32;;;;;;;16.87;7.37;;;34.20;1.00;;;;;;5004971;28;20465;-69
2023/10/11 07:55:59;;;;;;;19.77;6.80;;;34.90;1.00;;;;;;5008018;28;20464;-69
2023/10/11 07:58:32;;;;;;;13.00;6.47;;;35.70;1.00;;;;;;5006627;28;20488;-69
2023/10/11 08:01:15;;;;;;;15.53;6.30;;;36.30;1.00;;;;;;5008097;28;20880;-69
2023/10/11 08:03:44;;;;;;;16.90;8.10;;;37.00;1.00;;;;;;5005761;28;20486;-69
2023/10/11 08:06:12;;;;;;;12.97;6.80;;;37.60;1.00;;;;;;5006904;28;20471;-69
2023/10/11 08:08:38;;;;;;;16.40;6.30;;;38.30;1.00;;;;;;5010670;28;20979;-69
2023/10/11 08:11:18;;;;;;;13.47;7.13;;;38.90;1.00;;;;;;5011350;28;20970;-69
2023/10/11 08:13:46;;;;;;;15.43;5.80;;;39.40;1.00;;;;;;5008390;28;20809;-69
2023/10/11 08:16:17;;;;;;;18.30;6.80;;;40.00;1.00;;;;;;5011480;28;20471;-69
2023/10/11 08:18:45;;;;;;;18.10;7.20;;;39.90;1.00;;;;;;5011207;28;20952;-69
2023/10/11 08:21:12;;;;;;;15.80;6.10;;;40.00;1.00;;;;;;5009382;28;21506;-69
2023/10/11 08:23:42;;;;;;;15.60;6.40;;;40.60;1.00;;;;;;5006319;28;20495;-69
2023/10/11 08:26:14;;;;;;;16.73;5.93;;;41.20;1.00;;;;;;5010822;28;20455;-69
2023/10/11 08:28:47;;;;;;;13.97;6.40;;;41.70;1.00;;;;;;5011726;28;20463;-69
2023/10/11 08:31:26;;;;;;;11.83;6.20;;;42.10;1.00;;;;;;5005883;28;20468;-69
2023/10/11 08:33:53;;;;;;;17.10;7.30;;;42.60;1.00;;;;;;5010797;28;20482;-69
2023/10/11 08:36:20;;;;;;;16.77;7.43;;;43.00;1.00;;;;;;5014138;28;20515;-69
2023/10/11 08:38:47;;;;;;;18.57;5.80;;;43.40;1.00;;;;;;5008978;28;20471;-69
2023/10/11 08:41:15;;;;;;;12.47;5.77;;;43.80;1.00;;;;;;5009804;28;20471;-69
2023/10/11 08:43:42;;;;;;;15.30;7.13;;;44.10;1.00;;;;;;5010602;28;20948;-69
2023/10/11 08:46:12;;;;;;;14.10;6.80;;;44.30;1.00;;;;;;5009278;28;20460;-69
2023/10/11 08:48:40;;;;;;;14.00;7.20;;;44.60;1.00;;;;;;5010544;28;21267;-69
2023/10/11 08:51:10;;;;;;;14.33;6.90;;;44.90;1.00;;;;;;5008706;28;20956;-69
2023/10/11 08:53:39;;;;;;;14.00;5.93;;;45.10;1.00;;;;;;5005781;28;20467;-69
2023/10/11 08:56:09;;;;;;;20.93;6.90;;;45.40;1.00;;;;;;5009922;28;20591;-70
2023/10/11 08:58:36;;;;;;;13.10;6.60;;;45.70;1.00;;;;;;5011232;28;20459;-69
2023/10/11 09:01:03;;;;;;;17.10;6.10;;;45.70;1.00;;;;;;5005983;28;20476;-69
2023/10/11 09:03:31;;;;;;;11.33;5.10;;;46.00;1.00;;;;;;5009940;28;20507;-69
2023/10/11 09:06:00;;;;;;;13.83;6.53;;;46.00;1.00;;;;;;5011499;28;20475;-70
2023/10/11 09:08:31;;;;;;;14.20;5.90;;;46.20;1.00;;;;;;5011875;28;20507;-69
2023/10/11 09:11:12;;;;;;;16.03;6.10;;;46.30;1.00;;;;;;5010490;28;20468;-69
2023/10/11 09:13:39;;;;;;;12.70;6.20;;;46.60;1.00;;;;;;5008447;28;20554;-69
2023/10/11 09:16:12;;;;;;;17.10;6.23;;;46.60;1.00;;;;;;5007746;28;20487;-69
2023/10/11 09:18:39;;;;;;;12.87;6.83;;;46.80;1.00;;;;;;5009977;28;20460;-69
2023/10/11 09:21:15;;;;;;;14.13;6.27;;;46.90;1.00;;;;;;5010079;28;20459;-69
2023/10/11 09:23:46;;;;;;;14.43;5.50;;;47.10;1.00;;;;;;5007765;28;20463;-69
2023/10/11 09:26:20;;;;;;;11.87;5.53;;;47.20;1.00;;;;;;5007087;28;20467;-69
2023/10/11 09:28:56;;;;;;;15.43;6.40;;;47.10;1.00;;;;;;5007670;28;20466;-69
2023/10/11 09:31:24;;;;;;;12.20;6.33;;;47.00;1.00;;;;;;5004601;28;21219;-69
2023/10/11 09:33:52;;;;;;;13.20;6.17;;;46.90;1.00;;;;;;5008682;28;20488;-69
2023/10/11 09:36:24;;;;;;;15.17;5.97;;;46.90;1.00;;;;;;5010204;28;20463;-69
2023/10/11 09:38:55;;;;;;;14.03;6.77;;;46.80;1.00;;;;;;5010110;28;20455;-69
2023/10/11 09:41:24;;;;;;;13.30;6.60;;;46.80;1.00;;;;;;5007458;28;20471;-69
2023/10/11 09:43:54;;;;;;;12.40;5.17;;;46.70;1.00;;;;;;5009182;28;20484;-69
2023/10/11 09:46:25;;;;;;;13.33;5.97;;;46.60;1.00;;;;;;5008722;28;20463;-69
2023/10/11 09:48:51;;;;;;;22.30;7.53;;;46.40;1.00;;;;;;5010145;28;20825;-69
2023/10/11 09:51:20;;;;;;;12.67;6.40;;;46.40;1.00;;;;;;5009229;28;20460;-69
2023/10/11 09:53:50;;;;;;;16.90;6.70;;;46.40;1.00;;;;;;5007552;28;20542;-69
2023/10/11 09:56:37;;;;;;;11.93;6.33;;;46.20;1.00;;;;;;5008586;28;20558;-69
2023/10/11 09:59:23;;;;;;;18.60;7.20;;;45.90;1.00;;;;;;5009479;28;20455;-69
2023/10/11 10:01:57;;;;;;;13.70;5.83;;;45.70;1.00;;;;;;5008617;28;20496;-69
2023/10/11 10:04:53;;;;;;;15.60;6.63;;;45.60;1.00;;;;;;5008805;28;20578;-69
2023/10/11 10:07:25;;;;;;;29.87;7.70;;;45.40;1.00;;;;;;5007266;28;20468;-69
2023/10/11 10:09:53;;;;;;;15.33;6.80;;;45.20;1.00;;;;;;5007368;28;20464;-69
2023/10/11 10:12:25;;;;;;;16.33;6.63;;;44.90;1.00;;;;;;5009377;28;20474;-69
2023/10/11 10:15:12;;;;;;;13.07;6.23;;;44.60;1.00;;;;;;5009418;28;20490;-69
2023/10/11 10:17:39;;;;;;;14.40;5.60;;;44.10;1.00;;;;;;5005630;28;20459;-69
2023/10/11 10:20:43;;;;;;;14.37;6.17;;;43.80;1.00;;;;;;5009429;28;20492;-69
2023/10/11 10:23:29;;;;;;;11.53;6.00;;;43.30;1.00;;;;;;5008024;28;20966;-69
2023/10/11 10:26:43;;;;;;;15.67;5.63;;;42.90;1.00;;;;;;5007161;28;20518;-69
2023/10/11 10:29:12;;;;;;;10.43;5.03;;;42.40;1.00;;;;;;5008177;28;20466;-69
2023/10/11 10:32:04;;;;;;;14.43;5.20;;;41.80;1.00;;;;;;5007340;28;20484;-69
2023/10/11 10:34:31;;;;;;;13.60;5.90;;;41.30;1.00;;;;;;5007942;28;20488;-69
2023/10/11 10:37:05;;;;;;;12.90;5.27;;;40.90;1.00;;;;;;5001157;28;20502;-69
2023/10/11 10:39:48;;;;;;;12.20;5.27;;;40.40;1.00;;;;;;5006154;28;20459;-68
2023/10/11 10:42:17;;;;;;;9.33;5.20;;;39.90;1.00;;;;;;5004969;28;20460;-69
2023/10/11 10:44:53;;;;;;;12.67;5.73;;;39.50;1.00;;;;;;5002352;28;20471;-69
2023/10/11 10:47:31;;;;;;;14.03;5.80;;;39.00;1.00;;;;;;5006029;28;20497;-69
2023/10/11 10:50:04;;;;;;;14.70;5.87;;;38.50;1.00;;;;;;5008867;28;20471;-68
2023/10/11 10:52:31;;;;;;;10.90;6.20;;;38.00;1.00;;;;;;5008518;28;20464;-68
2023/10/11 10:55:02;;;;;;;10.23;5.40;;;37.60;1.00;;;;;;5007248;28;20489;-68
2023/10/11 10:57:33;;;;;;;13.27;5.17;;;37.20;1.00;;;;;;5003937;28;20500;-67
2023/10/11 11:00:05;;;;;;;14.73;5.40;;;36.70;1.00;;;;;;5007601;28;20468;-68
2023/10/11 11:02:33;;;;;;;13.30;5.00;;;36.20;1.00;;;;;;5001913;28;20480;-68
2023/10/11 11:05:00;;;;;;;12.00;4.70;;;35.80;1.00;;;;;;5006704;28;20558;-69
2023/10/11 11:07:26;;;;;;;16.10;4.87;;;35.50;1.00;;;;;;5003608;28;20468;-69
2023/10/11 11:09:54;;;;;;;12.77;4.80;;;35.30;1.00;;;;;;5002322;28;20465;-67
2023/10/11 11:12:28;;;;;;;18.37;5.93;;;35.10;1.00;;;;;;5006960;28;20809;-67
2023/10/11 11:14:56;;;;;;;12.47;4.93;;;35.00;1.00;;;;;;5005053;28;20877;-67
2023/10/11 11:17:23;;;;;;;11.60;4.70;;;35.00;1.00;;;;;;5008101;28;20464;-67
2023/10/11 11:22:52;;;;;;;16.43;6.20;;;35.00;1.00;;;;;;5004511;28;20968;-68
2023/10/11 11:25:26;;;;;;;17.93;5.43;;;35.00;1.00;;;;;;5004820;28;20966;-68
2023/10/11 11:28:14;;;;;;;12.70;5.50;;;35.00;1.00;;;;;;4998838;28;20619;-68
2023/10/11 11:30:43;;;;;;;11.87;4.70;;;35.10;1.00;;;;;;5004850;28;20474;-65
2023/10/11 11:33:27;;;;;;;10.00;4.63;;;35.10;1.00;;;;;;5000503;28;20459;-66
2023/10/11 11:35:55;;;;;;;10.20;4.33;;;35.00;1.00;;;;;;5007119;28;20488;-65
2023/10/11 11:38:21;;;;;;;9.93;4.83;;;35.10;1.00;;;;;;5007531;28;20952;-66
2023/10/11 11:40:51;;;;;;;12.10;4.90;;;35.20;1.00;;;;;;5009439;28;20467;-66
2023/10/11 11:43:20;;;;;;;13.60;5.23;;;35.10;1.00;;;;;;5002823;28;21010;-66
2023/10/11 11:45:51;;;;;;;16.50;4.63;;;35.20;1.00;;;;;;5005445;28;20483;-66
2023/10/11 11:48:23;;;;;;;12.63;4.40;;;35.30;1.00;;;;;;5007468;28;20991;-65
2023/10/11 11:50:50;;;;;;;15.37;5.40;;;35.20;1.00;;;;;;5008579;28;20546;-65
2023/10/11 11:53:18;;;;;;;13.67;4.30;;;35.10;1.00;;;;;;5004445;28;20470;-65
2023/10/11 11:55:45;;;;;;;18.07;6.10;;;35.00;1.00;;;;;;5005260;28;20590;-65
2023/10/11 11:58:11;;;;;;;12.53;5.20;;;35.00;1.00;;;;;;5006497;28;20475;-68
2023/10/11 12:00:40;;;;;;;14.20;4.40;;;35.00;1.00;;;;;;5005350;28;20522;-68
2023/10/11 12:03:06;;;;;;;14.67;4.50;;;35.00;1.00;;;;;;5009460;28;20666;-68
2023/10/11 12:05:37;;;;;;;15.27;4.40;;;35.00;1.00;;;;;;5010385;28;20511;-68
2023/10/11 12:08:08;;;;;;;14.83;4.93;;;34.90;1.00;;;;;;5010833;28;20542;-68
2023/10/11 12:10:34;;;;;;;19.90;5.07;;;34.80;1.00;;;;;;5011479;28;20464;-68
2023/10/11 12:13:08;;;;;;;13.20;4.50;;;34.60;1.00;;;;;;5009982;28;20468;-68
2023/10/11 12:15:35;;;;;;;10.97;4.37;;;34.40;1.00;;;;;;5003276;28;20900;-65
2023/10/11 12:18:09;;;;;;;12.10;4.70;;;34.30;1.00;;;;;;5001077;28;20464;-65
2023/10/11 12:20:36;;;;;;;10.23;4.83;;;34.10;1.00;;;;;;5004115;28;20534;-68
2023/10/11 12:23:08;;;;;;;11.30;4.10;;;33.80;1.00;;;;;;5009871;28;20487;-66
2023/10/11 12:25:40;;;;;;;11.50;4.90;;;33.40;1.00;;;;;;5009942;28;20514;-66
2023/10/11 12:28:08;;;;;;;14.50;4.80;;;32.90;1.00;;;;;;5005751;28;20461;-66
2023/10/11 12:30:35;;;;;;;14.30;4.40;;;32.50;1.00;;;;;;5004713;28;20467;-65
2023/10/11 12:33:06;;;;;;;16.37;5.03;;;32.00;1.00;;;;;;5010391;28;20881;-65
2023/10/11 12:35:35;;;;;;;11.70;5.30;;;31.70;1.00;;;;;;5010421;28;20491;-65
2023/10/11 12:38:02;;;;;;;9.23;3.90;;;31.40;1.00;;;;;;5011690;28;20498;-65
2023/10/11 12:40:34;;;;;;;11.27;4.13;;;31.10;1.00;;;;;;5009184;28;20573;-65
2023/10/11 12:43:01;;;;;;;9.60;3.90;;;30.80;1.00;;;;;;5012707;28;20456;-65
2023/10/11 12:45:28;;;;;;;16.83;3.80;;;30.50;1.00;;;;;;5012023;28;20484;-65
2023/10/11 12:47:54;;;;;;;13.97;4.60;;;30.20;1.00;;;;;;5011421;28;20463;-65
2023/10/11 12:50:22;;;;;;;10.00;4.13;;;30.00;1.00;;;;;;5013459;28;20468;-65
2023/10/11 12:52:52;;;;;;;11.27;4.40;;;29.70;1.00;;;;;;5011801;28;20471;-65
2023/10/11 12:55:20;;;;;;;11.60;3.80;;;29.50;1.00;;;;;;5010030;28;20502;-65
2023/10/11 12:57:48;;;;;;;7.40;4.30;;;29.20;1.00;;;;;;5013842;28;20492;-65
2023/10/11 13:00:31;;;;;;;13.00;4.47;;;29.00;1.00;;;;;;5014223;28;20460;-65
2023/10/11 13:03:05;;;;;;;12.83;5.00;;;28.80;1.00;;;;;;5010614;28;20464;-65
2023/10/11 13:05:33;;;;;;;14.30;4.30;;;28.60;1.00;;;;;;5012923;28;20483;-65
2023/10/11 13:08:00;;;;;;;13.37;4.57;;;28.50;1.00;;;;;;5014310;28;20463;-65
2023/10/11 13:10:27;;;;;;;10.87;4.17;;;28.40;1.00;;;;;;5013256;28;20467;-65
2023/10/11 13:12:54;;;;;;;11.87;4.47;;;28.20;1.00;;;;;;5014075;28;20468;-65
2023/10/11 13:15:22;;;;;;;13.03;4.17;;;28.20;1.00;;;;;;5010872;28;20576;-66
2023/10/11 13:17:49;;;;;;;11.77;4.30;;;28.00;1.00;;;;;;5010451;28;21012;-64
2023/10/11 13:20:19;;;;;;;15.73;4.20;;;27.90;1.00;;;;;;5002561;28;20470;-64
2023/10/11 13:22:48;;;;;;;12.00;3.60;;;27.80;1.00;;;;;;5006025;28;20555;-64